Time;durP1;ratioP1;P1;durP2;ratioP2;P2;SDS_P1;SDS_P2;PMS_P1;PMS_P2;Temp;Humidity;BMP_temperature;BMP_pressure;BME280_temperature;BME280_humidity;BME280_pressure;Samples;Min_cycle;Max_cycle;Signal;HPM_P1;HPM_P2
2024/03/08 00:00:32;;;;;;;7.78;5.78;;;21.90;36.00;;;;;;5072678;28;20186;-65
2024/03/08 00:03:00;;;;;;;8.65;6.10;;;21.90;35.90;;;;;;5072688;28;20594;-66
2024/03/08 00:05:29;;;;;;;8.95;6.22;;;21.90;36.00;;;;;;5072691;28;20191;-65
2024/03/08 00:07:56;;;;;;;8.48;5.72;;;21.90;36.00;;;;;;5072708;28;20264;-68
2024/03/08 00:10:23;;;;;;;7.25;5.97;;;21.90;36.00;;;;;;5072339;28;20207;-64
2024/03/08 00:12:51;;;;;;;8.55;5.80;;;21.90;35.90;;;;;;5072474;28;20272;-65
2024/03/08 00:15:18;;;;;;;8.63;5.82;;;21.90;35.90;;;;;;5072733;28;20195;-68
2024/03/08 00:17:46;;;;;;;8.35;5.85;;;21.90;35.90;;;;;;5071557;28;20253;-64
2024/03/08 00:20:13;;;;;;;7.72;5.88;;;21.90;35.90;;;;;;5072326;28;20277;-64
2024/03/08 00:22:41;;;;;;;10.25;6.00;;;21.90;35.90;;;;;;5072636;28;20211;-65
2024/03/08 00:25:09;;;;;;;9.90;5.50;;;21.90;35.90;;;;;;5071965;28;20695;-68
2024/03/08 00:27:37;;;;;;;7.97;6.35;;;21.90;35.90;;;;;;5072500;28;20708;-65
2024/03/08 00:30:04;;;;;;;10.18;6.07;;;21.90;35.90;;;;;;5072062;28;20749;-65
2024/03/08 00:32:32;;;;;;;8.55;6.25;;;21.80;35.80;;;;;;5072188;28;20244;-64
2024/03/08 00:34:59;;;;;;;9.38;6.88;;;21.90;35.90;;;;;;5072360;28;20183;-64
2024/03/08 00:37:25;;;;;;;8.82;6.35;;;21.90;35.90;;;;;;5072390;28;20219;-65
2024/03/08 00:39:54;;;;;;;12.07;6.65;;;21.90;35.90;;;;;;5071692;28;20194;-65
2024/03/08 00:42:21;;;;;;;9.48;5.93;;;21.80;35.80;;;;;;5072341;28;20233;-64
2024/03/08 00:44:50;;;;;;;8.27;6.20;;;21.90;36.60;;;;;;5072304;28;20193;-64
2024/03/08 00:47:17;;;;;;;8.43;6.32;;;21.80;35.80;;;;;;5072116;28;20222;-68
2024/03/08 00:49:44;;;;;;;8.20;5.95;;;21.80;35.80;;;;;;5071829;28;20735;-68
2024/03/08 00:52:11;;;;;;;8.93;6.68;;;21.80;35.80;;;;;;5072037;28;20233;-67
2024/03/08 00:54:38;;;;;;;7.38;5.45;;;21.80;35.80;;;;;;5071958;28;20191;-68
2024/03/08 00:57:06;;;;;;;9.23;6.60;;;21.80;35.80;;;;;;5072144;28;20220;-68
2024/03/08 00:59:33;;;;;;;7.00;5.78;;;21.80;35.80;;;;;;5071788;28;20197;-65
2024/03/08 01:02:01;;;;;;;8.10;6.40;;;21.80;35.80;;;;;;5071917;28;20301;-65
2024/03/08 01:04:28;;;;;;;9.10;6.20;;;21.80;35.80;;;;;;5072006;28;20220;-64
2024/03/08 01:06:56;;;;;;;9.82;6.88;;;21.80;35.80;;;;;;5072293;28;20229;-64
2024/03/08 01:09:23;;;;;;;7.53;6.22;;;21.80;35.80;;;;;;5071786;28;20195;-68
2024/03/08 01:11:50;;;;;;;10.38;6.78;;;21.80;35.80;;;;;;5071896;28;20281;-64
2024/03/08 01:14:18;;;;;;;8.38;6.75;;;21.80;35.80;;;;;;5071961;28;20234;-63
2024/03/08 01:16:45;;;;;;;8.65;6.47;;;21.80;35.80;;;;;;5071825;28;20215;-67
2024/03/08 01:19:13;;;;;;;8.85;6.75;;;21.80;35.80;;;;;;5071518;28;20672;-66
2024/03/08 01:21:40;;;;;;;9.38;6.75;;;21.80;35.70;;;;;;5071858;28;20700;-65
2024/03/08 01:24:07;;;;;;;10.00;7.68;;;21.80;35.70;;;;;;5070631;28;20191;-64
2024/03/08 01:26:35;;;;;;;10.80;7.05;;;21.80;35.70;;;;;;5066156;28;20689;-68
2024/03/08 01:29:02;;;;;;;7.60;6.32;;;21.80;35.70;;;;;;5053000;28;20764;-67
2024/03/08 01:31:31;;;;;;;8.30;6.55;;;21.80;35.60;;;;;;5055189;28;20285;-67
2024/03/08 01:33:58;;;;;;;9.13;7.38;;;21.80;35.70;;;;;;5036741;28;20199;-65
2024/03/08 01:36:25;;;;;;;12.30;7.70;;;21.80;35.60;;;;;;5055388;28;20355;-68
2024/03/08 01:38:52;;;;;;;8.02;6.88;;;21.80;35.60;;;;;;5055059;28;20275;-64
2024/03/08 01:41:19;;;;;;;10.00;7.28;;;21.80;35.60;;;;;;5055302;28;20187;-67
2024/03/08 01:43:46;;;;;;;10.80;7.13;;;21.80;35.60;;;;;;5054986;28;20230;-68
2024/03/08 01:46:17;;;;;;;11.02;7.28;;;21.80;35.50;;;;;;5055122;28;20270;-64
2024/03/08 01:48:45;;;;;;;12.23;7.68;;;21.80;36.30;;;;;;5055175;28;20191;-64
2024/03/08 01:51:14;;;;;;;9.93;7.93;;;21.80;35.50;;;;;;5055143;28;20225;-67
2024/03/08 01:53:45;;;;;;;7.80;6.35;;;21.80;35.60;;;;;;5054939;28;20188;-64
2024/03/08 01:56:12;;;;;;;9.88;7.32;;;21.80;35.50;;;;;;5055171;28;20196;-64
2024/03/08 01:58:41;;;;;;;10.30;7.53;;;21.80;35.50;;;;;;5055327;28;20219;-65
2024/03/08 02:01:09;;;;;;;9.60;7.28;;;21.80;35.50;;;;;;5054787;28;20274;-67
2024/03/08 02:03:36;;;;;;;8.15;6.50;;;21.80;35.50;;;;;;5054926;28;20670;-63
2024/03/08 02:06:08;;;;;;;8.65;6.93;;;21.80;35.50;;;;;;5054515;28;20637;-64
2024/03/08 02:08:35;;;;;;;9.07;6.65;;;21.80;35.50;;;;;;5054836;28;20307;-68
2024/03/08 02:11:02;;;;;;;7.47;6.38;;;21.80;35.50;;;;;;5054645;28;20246;-64
2024/03/08 02:13:29;;;;;;;9.05;6.65;;;21.80;35.50;;;;;;5054779;28;20231;-66
2024/03/08 02:15:59;;;;;;;10.57;6.68;;;21.80;35.50;;;;;;5054700;28;20625;-64
2024/03/08 02:18:26;;;;;;;11.07;7.75;;;21.80;35.50;;;;;;5054803;28;20569;-68
2024/03/08 02:20:55;;;;;;;12.77;6.85;;;21.80;36.20;;;;;;5054612;28;20337;-64
2024/03/08 02:23:24;;;;;;;7.75;6.60;;;21.70;35.40;;;;;;5054492;28;20215;-64
2024/03/08 02:25:52;;;;;;;8.60;6.82;;;21.80;35.50;;;;;;5054568;28;20211;-64
2024/03/08 02:28:19;;;;;;;8.80;6.70;;;21.80;35.50;;;;;;5054598;28;20441;-64
2024/03/08 02:30:47;;;;;;;8.43;6.30;;;21.80;35.40;;;;;;5054144;28;20265;-68
2024/03/08 02:33:16;;;;;;;10.25;6.88;;;21.80;35.40;;;;;;5054566;28;20231;-66
2024/03/08 02:35:45;;;;;;;8.48;6.53;;;21.80;35.40;;;;;;5054317;28;20193;-67
2024/03/08 02:38:16;;;;;;;9.68;7.43;;;21.80;35.40;;;;;;5054039;28;20577;-66
2024/03/08 02:40:43;;;;;;;8.57;6.35;;;21.80;35.40;;;;;;5053675;28;20390;-64
2024/03/08 02:43:10;;;;;;;11.32;6.28;;;21.80;35.40;;;;;;5054210;28;20310;-65
2024/03/08 02:45:36;;;;;;;8.88;6.80;;;21.80;35.40;;;;;;5053814;28;20634;-64
2024/03/08 02:48:04;;;;;;;9.52;6.60;;;21.80;35.40;;;;;;5053965;28;20234;-64
2024/03/08 02:50:31;;;;;;;8.00;6.70;;;21.80;35.40;;;;;;5053938;28;20188;-64
2024/03/08 02:52:58;;;;;;;8.25;6.32;;;21.80;35.40;;;;;;5053642;28;20231;-68
2024/03/08 02:55:26;;;;;;;10.85;6.65;;;21.70;35.30;;;;;;5053704;28;20188;-64
2024/03/08 02:57:54;;;;;;;7.70;6.75;;;21.80;35.40;;;;;;5053582;28;20716;-66
2024/03/08 03:00:23;;;;;;;8.52;6.60;;;21.80;35.40;;;;;;5053334;28;20183;-67
2024/03/08 03:02:52;;;;;;;10.48;7.22;;;21.80;35.40;;;;;;5053952;28;20222;-67
2024/03/08 03:05:19;;;;;;;10.27;6.90;;;21.80;35.40;;;;;;5053781;28;20184;-64
2024/03/08 03:07:46;;;;;;;7.72;6.50;;;21.70;35.20;;;;;;5053644;28;20219;-64
2024/03/08 03:10:16;;;;;;;8.77;6.88;;;21.70;35.30;;;;;;5053614;28;20202;-64
2024/03/08 03:12:45;;;;;;;11.05;7.28;;;21.80;35.30;;;;;;5053227;28;20712;-68
2024/03/08 03:15:13;;;;;;;10.63;7.25;;;21.80;35.30;;;;;;5053087;28;20316;-67
2024/03/08 03:17:41;;;;;;;8.90;6.75;;;21.70;35.20;;;;;;5053396;28;20632;-68
2024/03/08 03:20:13;;;;;;;8.73;6.93;;;21.70;35.20;;;;;;5053512;28;20196;-64
2024/03/08 03:22:41;;;;;;;9.48;6.43;;;21.70;35.20;;;;;;5053348;28;20238;-68
2024/03/08 03:25:09;;;;;;;9.48;7.30;;;21.70;35.20;;;;;;5053398;28;20653;-64
2024/03/08 03:27:36;;;;;;;9.30;6.93;;;21.70;35.20;;;;;;5053483;28;20220;-69
2024/03/08 03:33:01;;;;;;;11.32;7.22;;;21.70;35.10;;;;;;5110279;27;21127;-64
2024/03/08 03:35:29;;;;;;;9.43;7.28;;;21.70;35.10;;;;;;5110012;28;20571;-63
2024/03/08 03:38:05;;;;;;;9.20;7.03;;;21.80;35.20;;;;;;5109860;28;20217;-64
2024/03/08 03:40:32;;;;;;;10.32;7.13;;;21.70;35.10;;;;;;5101775;28;20231;-67
2024/03/08 03:42:59;;;;;;;10.75;7.15;;;21.70;35.00;;;;;;5093854;28;20221;-67
2024/03/08 03:45:26;;;;;;;10.95;7.68;;;21.80;35.10;;;;;;5109978;28;20196;-68
2024/03/08 03:47:53;;;;;;;8.48;6.63;;;21.70;35.00;;;;;;5100454;28;20221;-64
2024/03/08 03:50:23;;;;;;;11.32;7.72;;;21.70;35.00;;;;;;5089675;28;20186;-68
2024/03/08 03:52:50;;;;;;;10.75;7.43;;;21.80;35.10;;;;;;5108149;28;20232;-67
2024/03/08 03:55:17;;;;;;;10.75;7.82;;;21.80;35.00;;;;;;5109947;28;20188;-64
2024/03/08 03:57:45;;;;;;;10.40;7.80;;;21.80;35.00;;;;;;5109984;28;20304;-63
2024/03/08 04:00:13;;;;;;;9.05;7.10;;;21.70;34.90;;;;;;5109536;28;20370;-67
2024/03/08 04:02:40;;;;;;;10.70;7.53;;;21.70;34.90;;;;;;5109792;28;20217;-63
2024/03/08 04:05:09;;;;;;;9.65;7.22;;;21.70;35.00;;;;;;5109695;28;20273;-67
2024/03/08 04:07:38;;;;;;;11.00;7.07;;;21.80;35.00;;;;;;5109618;28;20304;-67
2024/03/08 04:10:07;;;;;;;9.90;7.18;;;21.80;35.00;;;;;;5109600;28;20186;-65
2024/03/08 04:12:34;;;;;;;9.55;6.90;;;21.80;35.00;;;;;;5109330;28;20690;-68
2024/03/08 04:15:01;;;;;;;8.88;7.28;;;21.70;34.90;;;;;;5109403;28;20216;-67
2024/03/08 04:17:27;;;;;;;10.30;7.15;;;21.70;34.90;;;;;;5109588;28;20580;-68
2024/03/08 04:19:54;;;;;;;8.13;6.43;;;21.70;34.90;;;;;;5109073;28;20280;-67
2024/03/08 04:22:21;;;;;;;9.30;6.53;;;21.70;34.90;;;;;;5109316;28;20221;-67
2024/03/08 04:24:50;;;;;;;7.93;6.32;;;21.70;35.00;;;;;;5109346;28;20285;-67
2024/03/08 04:27:17;;;;;;;9.57;7.40;;;21.70;34.90;;;;;;5109370;28;20300;-64
2024/03/08 04:29:44;;;;;;;8.65;6.55;;;21.70;34.90;;;;;;5109002;28;20196;-68
2024/03/08 04:32:13;;;;;;;9.02;6.55;;;21.70;34.90;;;;;;5108917;28;20241;-64
2024/03/08 04:34:40;;;;;;;8.65;6.50;;;21.70;34.90;;;;;;5109265;28;20189;-64
2024/03/08 04:37:07;;;;;;;9.65;6.57;;;21.70;34.80;;;;;;5108936;28;20213;-64
2024/03/08 04:39:33;;;;;;;9.05;7.00;;;21.70;34.80;;;;;;5109029;28;20269;-67
2024/03/08 04:42:04;;;;;;;8.93;6.68;;;21.70;34.90;;;;;;5108740;28;20725;-66
2024/03/08 04:44:31;;;;;;;9.38;7.20;;;21.70;34.90;;;;;;5094743;28;20186;-65
2024/03/08 04:46:58;;;;;;;10.48;7.07;;;21.70;34.90;;;;;;5095125;28;20221;-64
2024/03/08 04:49:25;;;;;;;8.77;6.60;;;21.70;34.90;;;;;;5095025;28;20687;-66
2024/03/08 04:51:52;;;;;;;8.40;6.68;;;21.70;34.90;;;;;;5095030;28;20389;-63
2024/03/08 04:54:19;;;;;;;9.50;7.35;;;21.70;34.90;;;;;;5095260;28;20193;-67
2024/03/08 04:56:46;;;;;;;11.52;7.53;;;21.60;34.80;;;;;;5095254;28;20190;-67
2024/03/08 04:59:14;;;;;;;9.90;6.05;;;21.70;34.90;;;;;;5094890;28;20280;-63
2024/03/08 05:01:41;;;;;;;7.05;6.25;;;21.70;34.90;;;;;;5094827;28;20186;-67
2024/03/08 05:04:08;;;;;;;9.27;6.45;;;21.70;34.90;;;;;;5094775;28;20247;-67
2024/03/08 05:06:36;;;;;;;9.85;6.60;;;21.60;34.80;;;;;;5094476;28;20229;-63
2024/03/08 05:09:13;;;;;;;8.63;6.82;;;21.70;34.90;;;;;;5094899;28;20632;-63
2024/03/08 05:11:40;;;;;;;9.43;6.97;;;21.70;34.80;;;;;;5095077;28;20210;-67
2024/03/08 05:14:07;;;;;;;10.82;6.60;;;21.60;34.70;;;;;;5094727;28;20277;-65
2024/03/08 05:16:35;;;;;;;8.82;6.80;;;21.70;34.80;;;;;;5094438;28;20631;-64
2024/03/08 05:19:02;;;;;;;10.07;7.00;;;21.60;34.80;;;;;;5094469;28;20652;-68
2024/03/08 05:21:29;;;;;;;9.40;6.47;;;21.60;35.40;;;;;;5094532;28;20273;-68
2024/03/08 05:23:56;;;;;;;7.85;6.90;;;21.60;34.70;;;;;;5094645;28;20729;-66
2024/03/08 05:26:23;;;;;;;9.35;7.18;;;21.60;34.70;;;;;;5094798;28;20239;-64
2024/03/08 05:28:50;;;;;;;9.82;7.30;;;21.60;34.70;;;;;;5094428;28;20303;-65
2024/03/08 05:31:20;;;;;;;11.02;6.85;;;21.70;34.80;;;;;;5094383;28;20312;-63
2024/03/08 05:33:48;;;;;;;9.52;6.68;;;21.70;34.70;;;;;;5094362;28;20711;-68
2024/03/08 05:36:16;;;;;;;9.30;7.25;;;21.70;34.70;;;;;;5094041;28;20652;-68
2024/03/08 05:38:43;;;;;;;10.95;7.15;;;21.60;34.70;;;;;;5094486;28;20620;-64
2024/03/08 05:41:11;;;;;;;12.70;7.72;;;21.70;34.70;;;;;;5094043;28;20726;-68
2024/03/08 05:43:38;;;;;;;8.90;6.97;;;21.70;34.70;;;;;;5094281;28;20228;-65
2024/03/08 05:46:05;;;;;;;9.63;7.10;;;21.60;34.70;;;;;;5094303;28;20280;-63
2024/03/08 05:48:32;;;;;;;10.38;6.95;;;21.60;34.60;;;;;;5094421;28;20214;-63
2024/03/08 05:51:01;;;;;;;10.65;7.05;;;21.70;34.70;;;;;;5093691;28;20682;-64
2024/03/08 05:53:31;;;;;;;10.13;7.22;;;21.60;34.60;;;;;;5094004;28;20263;-65
2024/03/08 05:55:58;;;;;;;10.55;7.82;;;21.60;34.50;;;;;;5093185;28;20202;-64
2024/03/08 05:58:25;;;;;;;10.07;7.57;;;21.70;34.60;;;;;;5093795;28;20304;-63
2024/03/08 06:00:52;;;;;;;11.25;7.00;;;21.70;34.60;;;;;;5094030;28;20284;-63
2024/03/08 06:03:21;;;;;;;9.55;7.03;;;21.60;34.50;;;;;;5094104;28;20213;-65
2024/03/08 06:05:48;;;;;;;8.73;6.90;;;21.70;34.60;;;;;;5093673;28;20194;-63
2024/03/08 06:08:16;;;;;;;7.63;6.45;;;21.70;34.60;;;;;;5093659;28;20304;-67
2024/03/08 06:10:43;;;;;;;9.35;6.85;;;21.70;34.70;;;;;;5094104;28;20269;-63
2024/03/08 06:13:11;;;;;;;8.85;6.70;;;21.60;34.60;;;;;;5093609;28;20321;-64
2024/03/08 06:15:38;;;;;;;8.60;6.60;;;21.60;34.50;;;;;;5093763;28;20190;-64
2024/03/08 06:18:07;;;;;;;8.63;6.53;;;21.60;34.50;;;;;;5093468;28;20214;-63
2024/03/08 06:20:34;;;;;;;8.00;6.18;;;21.60;34.50;;;;;;5093280;28;20217;-63
2024/03/08 06:23:01;;;;;;;9.75;6.70;;;21.60;34.50;;;;;;5093707;28;20222;-65
2024/03/08 06:25:29;;;;;;;9.48;6.72;;;21.60;34.60;;;;;;5093585;28;20289;-63
2024/03/08 06:27:56;;;;;;;10.15;7.13;;;21.60;34.50;;;;;;5093365;28;20214;-64
2024/03/08 06:30:23;;;;;;;10.77;6.55;;;21.60;34.60;;;;;;5093396;28;20183;-67
2024/03/08 06:32:50;;;;;;;8.82;6.97;;;21.60;34.60;;;;;;5092957;28;20268;-63
2024/03/08 06:35:17;;;;;;;8.52;6.35;;;21.60;34.60;;;;;;5092862;28;20284;-63
2024/03/08 06:37:44;;;;;;;8.93;6.75;;;21.60;34.50;;;;;;5093390;28;20297;-65
2024/03/08 06:40:13;;;;;;;9.70;6.90;;;21.60;34.50;;;;;;5093185;28;20235;-64
2024/03/08 06:42:42;;;;;;;7.97;6.72;;;21.60;34.50;;;;;;5092799;28;20214;-67
2024/03/08 06:45:10;;;;;;;10.00;6.75;;;21.50;34.40;;;;;;5093221;28;20196;-64
2024/03/08 06:47:36;;;;;;;8.70;6.22;;;21.50;34.50;;;;;;5093051;28;20214;-63
2024/03/08 06:50:05;;;;;;;8.40;6.60;;;21.50;34.40;;;;;;5092816;28;20182;-63
2024/03/08 06:52:33;;;;;;;7.70;6.43;;;21.50;34.50;;;;;;5092560;28;20759;-63
2024/03/08 06:55:01;;;;;;;8.45;6.63;;;21.50;34.40;;;;;;5093073;28;20186;-64
2024/03/08 06:57:29;;;;;;;10.07;6.43;;;21.50;34.40;;;;;;5092503;28;20581;-63
2024/03/08 06:59:58;;;;;;;7.90;6.53;;;21.50;34.40;;;;;;5092592;28;20651;-64
2024/03/08 07:02:25;;;;;;;8.75;6.28;;;21.50;34.40;;;;;;5092912;28;20221;-64
2024/03/08 07:04:52;;;;;;;8.27;6.53;;;21.50;34.40;;;;;;5092562;28;20194;-64
2024/03/08 07:07:20;;;;;;;8.70;6.82;;;21.50;34.40;;;;;;5092615;28;20247;-64
2024/03/08 07:09:49;;;;;;;8.45;6.18;;;21.50;34.40;;;;;;5093415;28;20193;-64
2024/03/08 07:12:16;;;;;;;8.73;6.43;;;21.50;34.50;;;;;;5092512;28;20222;-64
2024/03/08 07:14:45;;;;;;;10.10;6.90;;;21.50;34.50;;;;;;5092690;28;20237;-64
2024/03/08 07:17:13;;;;;;;9.15;6.72;;;21.50;34.40;;;;;;5092684;28;20214;-64
2024/03/08 07:19:40;;;;;;;8.70;6.95;;;21.50;34.50;;;;;;5092282;28;20204;-64
2024/03/08 07:22:08;;;;;;;10.07;6.90;;;21.50;34.40;;;;;;5093083;28;20218;-67
2024/03/08 07:24:55;;;;;;;9.13;6.90;;;21.50;34.40;;;;;;5092256;28;20664;-63
2024/03/08 07:27:22;;;;;;;10.32;6.78;;;21.50;34.40;;;;;;5092427;28;20225;-63
2024/03/08 07:29:49;;;;;;;7.78;6.13;;;21.50;34.40;;;;;;5092489;28;20221;-64
2024/03/08 07:32:20;;;;;;;13.95;6.80;;;21.50;34.40;;;;;;5092222;28;20237;-64
2024/03/08 07:34:50;;;;;;;8.25;6.03;;;21.60;34.40;;;;;;5092291;28;20200;-64
2024/03/08 07:37:17;;;;;;;8.95;6.55;;;21.50;34.40;;;;;;5092239;28;20255;-64
2024/03/08 07:39:44;;;;;;;10.23;7.03;;;21.60;34.40;;;;;;5092056;28;20281;-64
2024/03/08 07:42:11;;;;;;;10.35;6.95;;;21.60;34.40;;;;;;5092213;28;20222;-63
2024/03/08 07:44:38;;;;;;;12.38;7.00;;;21.60;34.40;;;;;;5092412;28;20186;-65
2024/03/08 07:47:07;;;;;;;8.98;6.72;;;21.50;34.30;;;;;;5092391;28;20217;-63
2024/03/08 07:49:35;;;;;;;9.15;6.32;;;21.60;34.40;;;;;;5091603;28;20182;-65
2024/03/08 07:52:04;;;;;;;9.43;5.93;;;21.60;34.30;;;;;;5078145;28;20190;-67
2024/03/08 07:54:31;;;;;;;9.45;6.90;;;21.60;34.40;;;;;;5081436;28;20727;-67
2024/03/08 07:56:58;;;;;;;8.75;6.72;;;21.70;34.40;;;;;;5090996;28;20192;-69
2024/03/08 07:59:25;;;;;;;8.85;7.05;;;21.70;34.30;;;;;;5091226;28;20194;-67
2024/03/08 08:01:51;;;;;;;8.50;6.63;;;21.70;34.20;;;;;;5091207;28;20595;-69
2024/03/08 08:04:24;;;;;;;10.52;6.50;;;21.80;34.20;;;;;;5087330;28;20223;-69
2024/03/08 08:06:54;;;;;;;12.27;6.82;;;21.80;34.30;;;;;;5090871;28;20222;-68
2024/03/08 08:09:28;;;;;;;14.55;6.80;;;21.80;34.20;;;;;;5089179;28;20218;-68
2024/03/08 08:11:55;;;;;;;8.43;7.00;;;21.90;34.50;;;;;;5089653;28;20192;-66
2024/03/08 08:14:22;;;;;;;9.50;6.90;;;21.90;34.60;;;;;;5088857;28;20302;-65
2024/03/08 08:16:52;;;;;;;9.68;6.60;;;21.90;34.70;;;;;;5089293;28;20190;-66
2024/03/08 08:19:19;;;;;;;9.82;6.70;;;22.00;34.70;;;;;;5093644;28;20196;-67
2024/03/08 08:21:46;;;;;;;10.52;6.78;;;22.00;34.80;;;;;;5094488;28;20726;-68
2024/03/08 08:24:15;;;;;;;8.48;6.20;;;22.00;35.00;;;;;;5090910;28;20222;-67
2024/03/08 08:26:44;;;;;;;15.50;6.55;;;22.10;35.10;;;;;;5092013;28;20190;-67
2024/03/08 08:29:11;;;;;;;11.27;7.10;;;22.10;34.90;;;;;;5094557;28;20218;-67
2024/03/08 08:31:38;;;;;;;8.68;6.25;;;22.10;34.90;;;;;;5093920;28;20279;-68
2024/03/08 08:34:06;;;;;;;10.77;6.68;;;22.10;34.90;;;;;;5092605;28;20229;-68
2024/03/08 08:36:33;;;;;;;9.65;6.60;;;22.20;35.00;;;;;;5094655;28;20190;-66
2024/03/08 08:39:03;;;;;;;9.13;6.50;;;22.30;35.00;;;;;;5093897;28;20218;-67
2024/03/08 08:41:31;;;;;;;11.85;6.60;;;22.30;35.00;;;;;;5094119;28;20229;-68
2024/03/08 08:43:58;;;;;;;8.85;6.20;;;22.30;35.00;;;;;;5092709;28;20213;-68
2024/03/08 08:46:26;;;;;;;10.43;6.00;;;22.30;34.90;;;;;;5092585;28;20244;-67
2024/03/08 08:48:52;;;;;;;8.63;6.40;;;22.30;34.80;;;;;;5094051;28;20218;-69
2024/03/08 08:51:19;;;;;;;10.95;6.43;;;22.30;34.90;;;;;;5077139;28;20209;-68
2024/03/08 08:53:47;;;;;;;9.10;6.78;;;22.30;35.10;;;;;;5082832;28;20321;-70
2024/03/08 08:56:15;;;;;;;10.77;6.97;;;22.30;35.20;;;;;;5078545;28;20266;-67
2024/03/08 08:58:44;;;;;;;12.63;6.32;;;22.30;36.00;;;;;;5077118;28;20214;-68
2024/03/08 09:01:11;;;;;;;9.90;6.88;;;22.30;35.50;;;;;;5089896;28;20278;-67
2024/03/08 09:03:40;;;;;;;12.98;6.97;;;22.30;35.70;;;;;;5092659;28;20213;-68
2024/03/08 09:06:09;;;;;;;11.82;7.00;;;22.30;35.70;;;;;;5092516;28;20558;-66
2024/03/08 09:08:36;;;;;;;12.43;7.10;;;22.40;35.80;;;;;;5091518;28;20221;-66
2024/03/08 09:11:05;;;;;;;11.90;7.00;;;22.40;35.80;;;;;;5079950;28;20194;-66
2024/03/08 09:13:33;;;;;;;14.55;6.80;;;22.40;35.70;;;;;;5074022;28;20791;-68
2024/03/08 09:16:05;;;;;;;10.60;6.53;;;22.40;35.80;;;;;;5090854;28;20239;-66
2024/03/08 09:18:33;;;;;;;9.40;7.45;;;22.40;35.80;;;;;;5081001;28;20214;-67
2024/03/08 09:21:00;;;;;;;11.02;6.55;;;22.50;35.90;;;;;;5057154;28;20289;-67
2024/03/08 09:23:30;;;;;;;13.95;6.97;;;22.50;35.90;;;;;;5081889;28;20218;-69
2024/03/08 09:25:57;;;;;;;10.10;6.68;;;22.50;35.80;;;;;;5086037;28;20313;-68
2024/03/08 09:28:24;;;;;;;14.30;7.18;;;22.50;35.70;;;;;;5081915;28;20747;-66
2024/03/08 09:30:52;;;;;;;10.43;7.63;;;22.60;35.90;;;;;;5091066;28;20265;-67
2024/03/08 09:33:21;;;;;;;10.85;7.25;;;22.60;35.80;;;;;;5081634;28;20309;-65
2024/03/08 09:35:49;;;;;;;22.60;8.35;;;22.60;35.80;;;;;;5091788;28;20230;-67
2024/03/08 09:38:16;;;;;;;12.15;7.85;;;22.60;35.70;;;;;;5091444;28;20217;-68
2024/03/08 09:40:43;;;;;;;10.50;6.57;;;22.60;35.60;;;;;;5091498;28;20221;-68
2024/03/08 09:43:11;;;;;;;10.55;7.10;;;22.60;35.50;;;;;;5087074;28;20672;-69
2024/03/08 09:45:41;;;;;;;10.45;7.00;;;22.60;35.60;;;;;;5101612;28;20608;-70
2024/03/08 09:48:11;;;;;;;10.43;7.05;;;22.60;35.60;;;;;;5089906;28;20225;-67
2024/03/08 09:50:41;;;;;;;14.23;7.05;;;22.60;35.60;;;;;;5069592;28;20191;-70
2024/03/08 09:53:08;;;;;;;14.38;6.80;;;22.60;35.50;;;;;;5089145;28;20234;-67
2024/03/08 09:55:36;;;;;;;9.48;6.95;;;22.50;35.50;;;;;;5078790;28;20289;-67
2024/03/08 10:00:51;;;;;;;12.52;7.03;;;22.60;35.50;;;;;;5091266;28;20196;-65
2024/03/08 10:03:20;;;;;;;10.98;7.30;;;22.60;35.40;;;;;;5086861;28;20245;-65
2024/03/08 10:05:48;;;;;;;10.10;6.95;;;22.60;35.40;;;;;;5088233;28;20285;-64
2024/03/08 10:08:15;;;;;;;12.10;7.55;;;22.60;35.40;;;;;;5075111;28;20214;-65
2024/03/08 10:10:42;;;;;;;19.17;8.35;;;22.60;35.40;;;;;;5087537;28;20192;-66
2024/03/08 10:13:12;;;;;;;10.88;7.35;;;22.50;35.30;;;;;;5078835;28;20697;-67
2024/03/08 10:15:40;;;;;;;11.82;7.43;;;22.60;35.50;;;;;;5077992;28;20190;-67
2024/03/08 10:18:08;;;;;;;17.23;7.30;;;22.50;35.40;;;;;;5073819;28;20218;-65
2024/03/08 10:20:35;;;;;;;10.60;7.00;;;22.60;35.50;;;;;;5071683;28;20206;-65
2024/03/08 10:23:05;;;;;;;10.32;7.60;;;22.60;35.60;;;;;;5070727;28;20288;-67
2024/03/08 10:25:32;;;;;;;24.20;6.78;;;22.60;35.60;;;;;;5080648;28;20190;-68
2024/03/08 10:27:59;;;;;;;13.18;6.90;;;22.60;36.20;;;;;;5089335;28;20653;-67
2024/03/08 10:30:26;;;;;;;11.18;7.20;;;22.60;35.40;;;;;;5091773;28;20216;-67
2024/03/08 10:32:52;;;;;;;10.82;7.13;;;22.70;35.40;;;;;;5089156;28;20313;-65
2024/03/08 10:35:21;;;;;;;10.93;7.10;;;22.70;35.50;;;;;;5090453;28;20198;-66
2024/03/08 10:37:49;;;;;;;13.18;7.22;;;22.70;35.40;;;;;;5052572;28;20229;-65
2024/03/08 10:40:19;;;;;;;7.95;6.03;;;22.70;35.40;;;;;;5090672;28;20265;-68
2024/03/08 10:42:55;;;;;;;9.55;7.13;;;22.70;35.40;;;;;;5088193;28;20702;-68
2024/03/08 10:45:31;;;;;;;12.43;7.32;;;22.80;35.40;;;;;;5099374;28;20220;-68
2024/03/08 10:48:11;;;;;;;18.13;7.30;;;22.80;35.40;;;;;;5088097;28;20253;-67
2024/03/08 10:50:39;;;;;;;10.75;7.15;;;22.80;35.40;;;;;;5090218;28;20730;-67
2024/03/08 10:53:08;;;;;;;15.75;6.75;;;22.80;35.40;;;;;;5088665;28;20224;-69
2024/03/08 10:55:41;;;;;;;11.23;6.55;;;22.80;35.40;;;;;;5088916;28;20800;-67
2024/03/08 10:58:09;;;;;;;12.80;7.28;;;22.80;35.40;;;;;;5090176;28;20239;-68
2024/03/08 11:00:36;;;;;;;11.20;7.20;;;22.80;35.40;;;;;;5089243;28;20265;-65
2024/03/08 11:03:05;;;;;;;16.67;7.47;;;22.80;35.40;;;;;;5090816;28;20855;-66
2024/03/08 11:05:39;;;;;;;9.40;6.65;;;22.80;35.40;;;;;;5090922;28;20218;-66
2024/03/08 11:08:19;;;;;;;13.70;7.32;;;22.80;35.30;;;;;;5071569;28;20707;-66
2024/03/08 11:10:52;;;;;;;14.73;7.15;;;22.80;35.40;;;;;;5085835;28;20197;-66
2024/03/08 11:13:40;;;;;;;12.55;6.22;;;22.80;35.40;;;;;;5090059;28;20295;-65
2024/03/08 11:16:09;;;;;;;11.35;6.70;;;22.80;35.40;;;;;;5090573;28;20189;-65
2024/03/08 11:18:37;;;;;;;9.45;6.15;;;22.90;35.40;;;;;;5090705;28;20218;-66
2024/03/08 11:21:06;;;;;;;11.90;6.82;;;22.90;35.50;;;;;;5088919;28;20196;-66
2024/03/08 11:23:33;;;;;;;19.25;6.45;;;22.90;35.40;;;;;;5091131;28;20300;-66
2024/03/08 11:26:05;;;;;;;16.85;6.80;;;22.90;35.40;;;;;;5090898;28;20222;-66
2024/03/08 11:28:32;;;;;;;11.27;6.82;;;22.90;35.20;;;;;;5090809;28;20657;-67
2024/03/08 11:31:24;;;;;;;12.63;7.00;;;22.90;35.20;;;;;;5090235;28;20305;-66
2024/03/08 11:33:53;;;;;;;14.85;6.90;;;22.90;35.10;;;;;;5090615;28;20283;-66
2024/03/08 11:36:22;;;;;;;13.02;6.63;;;22.90;35.10;;;;;;5084803;28;20207;-67
2024/03/08 11:38:51;;;;;;;13.20;6.75;;;22.90;35.10;;;;;;5079209;28;20223;-65
2024/03/08 11:41:21;;;;;;;10.45;6.55;;;22.90;35.80;;;;;;5070200;28;20191;-67
2024/03/08 11:43:48;;;;;;;13.07;6.60;;;22.90;35.10;;;;;;5070368;28;20779;-67
2024/03/08 11:46:17;;;;;;;11.35;6.65;;;22.90;35.10;;;;;;5101138;28;20276;-66
2024/03/08 11:48:45;;;;;;;9.25;6.57;;;22.90;35.20;;;;;;5102421;28;20304;-66
2024/03/08 11:51:13;;;;;;;14.93;6.95;;;22.90;35.00;;;;;;5077569;28;20325;-66
2024/03/08 11:53:40;;;;;;;9.85;7.03;;;22.90;35.00;;;;;;5077881;28;20313;-66
2024/03/08 11:56:11;;;;;;;11.05;6.55;;;22.90;35.60;;;;;;5093234;28;20277;-66
2024/03/08 11:58:42;;;;;;;8.27;6.05;;;22.90;34.90;;;;;;5094103;28;20310;-66
2024/03/08 12:01:16;;;;;;;7.85;6.13;;;22.90;34.80;;;;;;5086561;28;20276;-66
2024/03/08 12:03:47;;;;;;;10.93;6.70;;;22.90;34.80;;;;;;5073727;28;20213;-66
2024/03/08 12:06:15;;;;;;;12.32;6.93;;;22.90;34.70;;;;;;5083089;28;20198;-67
2024/03/08 12:08:42;;;;;;;11.88;6.38;;;22.90;34.80;;;;;;5092824;28;20300;-66
2024/03/08 12:11:22;;;;;;;8.82;6.15;;;22.90;34.60;;;;;;5092905;28;20182;-66
2024/03/08 12:13:52;;;;;;;9.35;6.03;;;22.90;34.60;;;;;;5093062;28;20313;-66
2024/03/08 12:16:21;;;;;;;8.23;6.25;;;22.90;34.50;;;;;;5092918;28;20669;-66
2024/03/08 12:18:55;;;;;;;11.95;5.97;;;22.90;34.50;;;;;;5093328;28;20565;-66
2024/03/08 12:21:25;;;;;;;8.25;5.88;;;22.90;34.40;;;;;;5043653;28;20361;-66
2024/03/08 12:24:05;;;;;;;12.35;6.25;;;22.90;34.40;;;;;;5093128;28;20218;-66
2024/03/08 12:26:33;;;;;;;8.43;6.13;;;22.90;34.40;;;;;;5092289;28;20277;-66
2024/03/08 12:29:17;;;;;;;7.45;6.15;;;22.90;34.40;;;;;;5073955;28;20302;-66
2024/03/08 12:31:44;;;;;;;9.32;6.50;;;22.90;34.30;;;;;;5085748;28;20253;-66
2024/03/08 12:34:13;;;;;;;9.73;6.20;;;23.00;34.40;;;;;;5092424;28;20276;-65
2024/03/08 12:36:47;;;;;;;10.65;6.13;;;22.90;34.20;;;;;;5092991;28;20186;-66
2024/03/08 12:39:15;;;;;;;7.88;6.20;;;22.90;34.20;;;;;;5093106;28;20225;-65
2024/03/08 12:41:43;;;;;;;10.15;6.47;;;22.90;34.20;;;;;;5074304;28;20202;-66
2024/03/08 12:44:11;;;;;;;8.90;6.22;;;22.90;34.40;;;;;;5071854;28;20251;-65
2024/03/08 12:46:41;;;;;;;10.52;6.32;;;22.90;34.40;;;;;;5084265;28;20201;-65
2024/03/08 12:49:10;;;;;;;9.30;6.57;;;22.90;34.50;;;;;;5090878;28;20715;-66
2024/03/08 12:51:38;;;;;;;16.02;6.85;;;22.90;34.50;;;;;;5087414;28;20182;-66
2024/03/08 12:54:07;;;;;;;10.75;6.00;;;23.00;34.70;;;;;;5090926;28;20230;-66